Time;durP1;ratioP1;P1;durP2;ratioP2;P2;SDS_P1;SDS_P2;PMS_P1;PMS_P2;Temp;Humidity;BMP_temperature;BMP_pressure;BME280_temperature;BME280_humidity;BME280_pressure;Samples;Min_cycle;Max_cycle;Signal;HPM_P1;HPM_P2
2021/01/05 00:01:54;;;;;;;32.80;17.10;;;1.90;69.60;;;;;;5081098;28;20040;-64
2021/01/05 00:04:20;;;;;;;40.10;17.52;;;1.80;69.70;;;;;;5081805;28;20147;-64
2021/01/05 00:06:45;;;;;;;33.08;16.92;;;1.80;69.60;;;;;;5080122;28;20239;-64
2021/01/05 00:09:11;;;;;;;34.40;16.70;;;1.70;69.80;;;;;;5080161;28;20413;-64
2021/01/05 00:11:55;;;;;;;32.70;17.13;;;1.70;69.90;;;;;;5081522;28;20331;-64
2021/01/05 00:14:21;;;;;;;34.03;17.10;;;1.60;70.10;;;;;;5080633;28;20051;-64
2021/01/05 00:16:46;;;;;;;33.38;16.83;;;1.60;70.10;;;;;;5080165;28;20045;-64
2021/01/05 00:19:12;;;;;;;34.70;16.42;;;1.70;70.00;;;;;;5081350;28;20040;-64
2021/01/05 00:21:37;;;;;;;35.60;17.33;;;1.50;70.20;;;;;;5078499;28;20040;-64
2021/01/05 00:24:05;;;;;;;35.67;17.52;;;1.60;70.70;;;;;;5061707;28;20250;-64
2021/01/05 00:26:33;;;;;;;33.70;17.40;;;1.50;70.50;;;;;;5080069;28;20097;-64
2021/01/05 00:28:59;;;;;;;34.83;17.73;;;1.60;70.70;;;;;;5064088;28;20074;-64
2021/01/05 00:31:24;;;;;;;36.75;17.67;;;1.60;70.70;;;;;;5081448;28;20036;-64
2021/01/05 00:33:50;;;;;;;34.47;17.05;;;1.70;70.70;;;;;;5079940;28;20151;-64
2021/01/05 00:36:15;;;;;;;35.97;17.00;;;1.70;70.20;;;;;;5079742;28;20328;-64
2021/01/05 00:38:41;;;;;;;37.75;18.13;;;1.60;70.20;;;;;;5081160;28;20037;-64
2021/01/05 00:41:06;;;;;;;41.20;17.70;;;1.60;70.10;;;;;;5081396;28;20032;-64
2021/01/05 00:43:32;;;;;;;40.95;18.02;;;1.50;70.20;;;;;;5081002;28;20235;-64
2021/01/05 00:45:57;;;;;;;36.67;18.25;;;1.70;70.30;;;;;;5079485;28;20051;-64
2021/01/05 00:48:23;;;;;;;39.10;18.38;;;1.70;70.00;;;;;;5079752;28;20036;-64
2021/01/05 00:50:48;;;;;;;36.25;18.00;;;1.70;70.70;;;;;;5081041;28;20042;-64
2021/01/05 00:53:14;;;;;;;32.85;16.83;;;1.70;70.30;;;;;;5063361;28;20066;-64
2021/01/05 00:55:39;;;;;;;36.58;18.33;;;1.70;70.30;;;;;;5078273;28;20036;-66
2021/01/05 00:58:05;;;;;;;36.72;17.88;;;1.70;69.90;;;;;;5080886;28;20332;-64
2021/01/05 01:00:31;;;;;;;35.92;16.92;;;1.80;70.00;;;;;;5079538;28;20056;-64
2021/01/05 01:02:56;;;;;;;37.05;16.65;;;1.80;69.60;;;;;;5080994;28;20032;-64
2021/01/05 01:05:22;;;;;;;35.92;18.00;;;1.70;69.80;;;;;;5080708;28;20255;-64
2021/01/05 01:07:48;;;;;;;37.10;17.80;;;1.80;70.30;;;;;;5078505;28;20050;-64
2021/01/05 01:10:14;;;;;;;33.22;16.08;;;1.80;70.30;;;;;;5079683;28;20041;-64
2021/01/05 01:12:39;;;;;;;37.13;17.70;;;1.70;70.30;;;;;;5079005;28;20040;-64
2021/01/05 01:15:06;;;;;;;37.22;16.83;;;1.60;70.00;;;;;;5082303;28;20041;-64
2021/01/05 01:17:31;;;;;;;40.17;19.08;;;1.80;69.70;;;;;;5084843;28;20036;-64
2021/01/05 01:19:57;;;;;;;38.00;16.98;;;1.80;69.60;;;;;;5084954;28;20279;-64
2021/01/05 01:22:23;;;;;;;38.20;16.80;;;1.60;69.90;;;;;;5084816;28;20037;-64
2021/01/05 01:24:48;;;;;;;35.83;16.75;;;1.70;69.70;;;;;;5082248;28;20241;-64
2021/01/05 01:27:14;;;;;;;37.72;17.73;;;1.70;69.70;;;;;;5083016;28;20032;-64
2021/01/05 01:29:39;;;;;;;38.58;18.25;;;1.60;69.80;;;;;;5083848;28;20037;-64
2021/01/05 01:32:05;;;;;;;39.00;17.52;;;1.60;70.00;;;;;;5084734;28;20052;-64
2021/01/05 01:34:30;;;;;;;36.35;17.42;;;1.60;69.80;;;;;;5084796;28;20211;-64
2021/01/05 01:37:03;;;;;;;36.33;16.63;;;1.60;69.70;;;;;;5083287;28;20029;-64
2021/01/05 01:39:29;;;;;;;38.08;17.35;;;1.70;69.40;;;;;;5083281;28;20032;-64
2021/01/05 01:41:56;;;;;;;36.53;16.80;;;1.70;69.30;;;;;;5083426;28;20028;-64
2021/01/05 01:44:26;;;;;;;38.47;16.92;;;1.50;69.90;;;;;;5066249;28;20049;-64
2021/01/05 01:46:53;;;;;;;40.43;17.73;;;1.60;69.80;;;;;;5082463;28;20028;-64
2021/01/05 01:49:18;;;;;;;37.83;17.48;;;1.70;69.80;;;;;;5083183;28;20259;-64
2021/01/05 01:51:44;;;;;;;37.08;17.42;;;1.70;69.40;;;;;;5065239;28;20146;-64
2021/01/05 01:54:31;;;;;;;41.58;17.90;;;1.70;69.20;;;;;;5081332;28;20033;-64
2021/01/05 01:57:07;;;;;;;38.92;17.67;;;1.80;69.20;;;;;;5084524;28;20056;-64
2021/01/05 02:00:04;;;;;;;38.63;18.25;;;1.70;69.20;;;;;;5082164;28;20108;-64
2021/01/05 02:02:54;;;;;;;36.25;17.35;;;1.70;69.10;;;;;;5061871;28;20031;-65
2021/01/05 02:05:30;;;;;;;34.53;17.40;;;1.70;69.70;;;;;;5083803;28;20108;-64
2021/01/05 02:08:03;;;;;;;40.30;17.17;;;1.60;70.00;;;;;;5081893;28;20059;-64
2021/01/05 02:10:40;;;;;;;36.30;16.73;;;1.60;69.20;;;;;;5083038;28;20123;-64
2021/01/05 02:13:22;;;;;;;32.10;16.15;;;1.60;69.30;;;;;;5081811;28;20036;-64
2021/01/05 02:16:12;;;;;;;35.70;17.02;;;1.60;69.70;;;;;;5082399;28;20247;-64
2021/01/05 02:18:41;;;;;;;33.30;16.90;;;1.50;69.20;;;;;;5081545;28;20130;-64
2021/01/05 02:21:23;;;;;;;36.80;17.00;;;1.50;69.40;;;;;;5064781;28;20119;-64
2021/01/05 02:24:03;;;;;;;33.72;16.27;;;1.50;69.20;;;;;;5082180;28;20037;-64
2021/01/05 02:26:57;;;;;;;38.38;17.02;;;1.50;69.10;;;;;;5080993;28;20029;-64
2021/01/05 02:29:27;;;;;;;39.28;17.63;;;1.50;68.90;;;;;;5083946;28;20033;-64
2021/01/05 02:32:03;;;;;;;35.70;17.13;;;1.40;69.30;;;;;;5081632;28;20074;-64
2021/01/05 02:34:38;;;;;;;35.17;16.35;;;1.40;69.60;;;;;;5082318;28;20043;-64
2021/01/05 02:37:13;;;;;;;34.42;17.10;;;1.50;69.60;;;;;;5080770;28;20033;-64
2021/01/05 02:40:11;;;;;;;32.88;16.27;;;1.40;69.70;;;;;;5082133;28;20320;-64
2021/01/05 02:42:44;;;;;;;37.13;16.98;;;1.40;69.70;;;;;;5081807;28;20090;-64
2021/01/05 02:45:12;;;;;;;35.47;16.50;;;1.50;69.90;;;;;;5080818;28;20041;-64
2021/01/05 02:47:53;;;;;;;35.53;17.40;;;1.50;69.60;;;;;;5065742;28;20036;-64
2021/01/05 02:50:29;;;;;;;34.92;16.23;;;1.50;69.40;;;;;;5082003;28;20048;-64
2021/01/05 02:53:30;;;;;;;36.95;17.30;;;1.50;69.40;;;;;;5080890;28;20028;-64
2021/01/05 02:56:33;;;;;;;35.97;16.75;;;1.40;69.50;;;;;;5081019;28;20063;-64
2021/01/05 02:59:05;;;;;;;35.90;16.77;;;1.40;69.90;;;;;;5082192;28;20070;-64
2021/01/05 03:01:55;;;;;;;38.65;17.55;;;1.50;69.70;;;;;;5064957;28;20036;-64
2021/01/05 03:04:20;;;;;;;38.22;17.15;;;1.50;69.60;;;;;;5080585;28;20343;-65
2021/01/05 03:06:53;;;;;;;39.15;16.98;;;1.50;69.20;;;;;;5081379;28;20086;-64
2021/01/05 03:10:16;;;;;;;41.08;18.25;;;1.40;69.80;;;;;;5081247;28;20036;-64
2021/01/05 03:13:05;;;;;;;37.75;16.13;;;1.40;69.70;;;;;;5019469;28;20053;-64
2021/01/05 03:15:51;;;;;;;37.55;16.60;;;1.40;69.90;;;;;;5005598;28;20040;-64
2021/01/05 03:18:29;;;;;;;35.75;17.23;;;1.40;69.70;;;;;;5061091;28;20032;-64
2021/01/05 03:21:09;;;;;;;39.10;17.00;;;1.30;69.80;;;;;;5081699;28;20040;-64
2021/01/05 03:23:34;;;;;;;34.85;15.85;;;1.40;70.10;;;;;;5080371;28;20021;-64
2021/01/05 03:26:02;;;;;;;36.88;16.60;;;1.40;69.50;;;;;;5082536;28;20239;-64
2021/01/05 03:28:28;;;;;;;38.38;17.42;;;1.40;69.90;;;;;;5065035;28;20036;-64
2021/01/05 03:31:07;;;;;;;36.45;16.88;;;1.40;69.80;;;;;;5063082;28;20052;-64
2021/01/05 03:33:33;;;;;;;35.03;17.38;;;1.40;70.00;;;;;;5079611;28;20377;-64
2021/01/05 03:35:58;;;;;;;34.85;16.58;;;1.40;70.00;;;;;;5081194;28;20036;-64
2021/01/05 03:38:24;;;;;;;33.78;16.83;;;1.50;70.10;;;;;;5081122;28;20032;-64
2021/01/05 03:40:49;;;;;;;39.45;17.42;;;1.40;69.60;;;;;;5082517;28;20103;-64
2021/01/05 03:43:15;;;;;;;36.38;17.20;;;1.40;70.50;;;;;;5080739;28;20162;-64
2021/01/05 03:45:40;;;;;;;37.40;17.23;;;1.50;69.90;;;;;;5080520;28;20044;-64
2021/01/05 03:48:06;;;;;;;38.60;16.80;;;1.60;70.10;;;;;;5079258;28;20100;-64
2021/01/05 03:50:32;;;;;;;35.22;15.93;;;1.50;69.90;;;;;;5082180;28;20092;-64
2021/01/05 03:52:57;;;;;;;33.72;15.98;;;1.60;70.70;;;;;;5082296;28;20040;-64
2021/01/05 03:55:23;;;;;;;35.08;16.60;;;1.50;69.60;;;;;;5081977;28;20037;-64
2021/01/05 03:57:48;;;;;;;33.92;16.50;;;1.50;69.90;;;;;;5079286;28;20040;-64
2021/01/05 04:00:17;;;;;;;33.17;15.57;;;1.50;70.00;;;;;;5080043;28;20331;-64
2021/01/05 04:02:44;;;;;;;30.75;15.57;;;1.60;70.00;;;;;;5080609;28;20048;-64
2021/01/05 04:05:11;;;;;;;29.95;15.32;;;1.60;69.80;;;;;;5081909;28;20096;-64
2021/01/05 04:07:36;;;;;;;32.00;15.00;;;1.60;69.40;;;;;;5081886;28;20244;-64
2021/01/05 04:10:05;;;;;;;35.55;15.63;;;1.60;69.30;;;;;;5080011;28;20039;-64
2021/01/05 04:12:31;;;;;;;32.58;15.32;;;1.70;69.20;;;;;;5079877;28;20044;-64
2021/01/05 04:14:56;;;;;;;34.58;16.10;;;1.50;69.20;;;;;;5081497;28;20040;-64
2021/01/05 04:17:22;;;;;;;30.23;14.75;;;1.50;69.30;;;;;;5080508;28;20338;-64
2021/01/05 04:19:47;;;;;;;34.38;15.73;;;1.50;69.20;;;;;;5078901;28;20043;-64
2021/01/05 04:22:13;;;;;;;33.83;15.98;;;1.50;69.10;;;;;;5081613;28;20036;-64
2021/01/05 04:24:38;;;;;;;31.70;15.10;;;1.50;69.50;;;;;;5079706;28;20047;-64
2021/01/05 04:27:04;;;;;;;30.75;15.05;;;1.40;69.70;;;;;;5079003;28;20219;-64
2021/01/05 04:29:30;;;;;;;29.80;14.80;;;1.50;69.70;;;;;;5081700;28;20141;-64
2021/01/05 04:31:55;;;;;;;34.58;15.60;;;1.60;69.40;;;;;;5081749;28;20332;-64
2021/01/05 04:34:21;;;;;;;32.50;16.13;;;1.50;69.30;;;;;;5081291;28;20156;-64
2021/01/05 04:36:46;;;;;;;36.30;16.80;;;1.50;69.40;;;;;;5079703;28;20033;-64
2021/01/05 04:39:12;;;;;;;31.05;15.45;;;1.50;68.80;;;;;;5079685;28;20036;-64
2021/01/05 04:41:48;;;;;;;30.40;15.02;;;1.40;69.10;;;;;;5081063;28;20211;-64
2021/01/05 04:44:14;;;;;;;33.80;16.05;;;1.50;69.10;;;;;;5063701;28;20100;-64
2021/01/05 04:46:55;;;;;;;34.78;16.13;;;1.60;68.90;;;;;;5061817;28;20037;-65
2021/01/05 04:49:32;;;;;;;33.75;15.07;;;1.50;68.80;;;;;;5063549;28;20052;-64
2021/01/05 04:52:04;;;;;;;36.58;16.30;;;1.50;68.80;;;;;;5078550;28;20040;-64
2021/01/05 04:54:52;;;;;;;33.22;15.63;;;1.40;68.90;;;;;;5062574;28;20032;-64
2021/01/05 04:57:17;;;;;;;32.63;15.65;;;1.40;69.30;;;;;;5062512;28;20021;-64
2021/01/05 04:59:47;;;;;;;31.85;15.98;;;1.50;69.20;;;;;;5081023;28;20047;-64
2021/01/05 05:02:30;;;;;;;32.67;16.70;;;1.50;69.00;;;;;;5080058;28;20332;-64
2021/01/05 05:05:05;;;;;;;35.42;16.13;;;1.50;69.70;;;;;;5078558;28;20043;-64
2021/01/05 05:07:30;;;;;;;33.15;15.82;;;1.40;69.40;;;;;;5063240;28;20102;-64
2021/01/05 05:09:59;;;;;;;39.20;17.45;;;1.40;69.60;;;;;;5079284;28;20032;-64
2021/01/05 05:13:05;;;;;;;34.00;15.85;;;1.60;70.30;;;;;;5044643;28;20078;-64
2021/01/05 05:16:05;;;;;;;34.03;15.68;;;1.60;69.00;;;;;;5061429;28;20088;-64
2021/01/05 05:18:35;;;;;;;36.63;16.00;;;1.60;69.20;;;;;;5078277;28;20052;-64
2021/01/05 05:21:18;;;;;;;35.47;15.75;;;1.60;68.80;;;;;;5080799;28;20033;-64
2021/01/05 05:24:03;;;;;;;38.47;16.55;;;1.60;69.10;;;;;;5078483;28;20298;-65
2021/01/05 05:26:46;;;;;;;38.90;17.17;;;1.50;69.00;;;;;;5079589;28;20089;-64
2021/01/05 05:29:16;;;;;;;34.70;16.05;;;1.70;69.20;;;;;;5080746;28;20028;-64
2021/01/05 05:31:41;;;;;;;33.70;15.43;;;1.70;68.80;;;;;;5078119;28;20351;-65
2021/01/05 05:34:25;;;;;;;34.50;16.77;;;1.70;69.10;;;;;;5062703;28;20033;-63
2021/01/05 05:37:02;;;;;;;38.20;17.10;;;1.80;68.40;;;;;;5077690;28;20043;-65
2021/01/05 05:40:11;;;;;;;40.08;16.58;;;1.70;68.10;;;;;;5077880;28;20096;-64
2021/01/05 05:42:58;;;;;;;34.25;15.52;;;1.70;68.00;;;;;;5047574;28;20036;-64
2021/01/05 05:45:25;;;;;;;33.50;15.48;;;1.70;68.90;;;;;;5077551;28;20047;-65
2021/01/05 05:47:57;;;;;;;34.05;15.63;;;1.70;68.20;;;;;;5079550;28;20099;-64
2021/01/05 05:50:26;;;;;;;35.53;16.10;;;1.60;68.80;;;;;;5061824;28;20331;-66
2021/01/05 05:52:57;;;;;;;34.20;16.17;;;1.70;68.90;;;;;;5079061;28;20238;-64
2021/01/05 05:55:33;;;;;;;30.83;14.63;;;1.60;68.50;;;;;;5080484;28;20224;-63
2021/01/05 05:57:59;;;;;;;34.03;15.93;;;1.50;68.40;;;;;;5077848;28;20040;-64
2021/01/05 06:00:38;;;;;;;36.47;15.90;;;1.60;69.30;;;;;;5064582;28;20028;-64
2021/01/05 06:03:05;;;;;;;34.40;16.05;;;1.70;69.00;;;;;;5081331;28;20033;-64
2021/01/05 06:05:32;;;;;;;37.40;16.60;;;1.60;67.80;;;;;;5082745;28;20099;-64
2021/01/05 06:07:58;;;;;;;36.30;17.00;;;1.50;68.30;;;;;;5084232;28;20100;-64
2021/01/05 06:10:24;;;;;;;34.22;15.98;;;1.50;68.20;;;;;;5082460;28;20086;-64
2021/01/05 06:12:50;;;;;;;36.80;16.63;;;1.60;68.10;;;;;;5080978;28;20212;-64
2021/01/05 06:15:15;;;;;;;36.25;16.92;;;1.50;68.20;;;;;;5080967;28;20044;-63
2021/01/05 06:17:41;;;;;;;36.85;16.50;;;1.50;68.60;;;;;;5083905;28;20063;-65
2021/01/05 06:20:07;;;;;;;35.15;16.13;;;1.50;68.10;;;;;;5083832;28;20082;-65
2021/01/05 06:22:33;;;;;;;35.25;15.85;;;1.50;68.10;;;;;;5082459;28;20095;-66
2021/01/05 06:24:58;;;;;;;37.53;16.98;;;1.50;68.40;;;;;;5082039;28;20048;-65
2021/01/05 06:27:24;;;;;;;39.75;17.17;;;1.50;68.40;;;;;;5081541;28;20039;-66
2021/01/05 06:29:49;;;;;;;37.33;16.75;;;1.50;68.40;;;;;;5082425;28;20071;-65
2021/01/05 06:32:15;;;;;;;35.00;16.88;;;1.40;68.30;;;;;;5082343;28;20320;-65
2021/01/05 06:34:40;;;;;;;38.05;16.50;;;1.40;68.50;;;;;;5081876;28;20063;-65
2021/01/05 06:37:06;;;;;;;40.38;18.48;;;1.40;68.60;;;;;;5083160;28;20040;-66
2021/01/05 06:39:31;;;;;;;39.80;17.15;;;1.40;68.60;;;;;;5080311;28;20204;-65
2021/01/05 06:41:57;;;;;;;37.80;16.45;;;1.40;69.70;;;;;;5083154;28;20316;-65
2021/01/05 06:44:22;;;;;;;42.30;17.48;;;1.50;69.20;;;;;;5083049;28;20142;-65
2021/01/05 06:46:51;;;;;;;36.40;17.10;;;1.40;68.70;;;;;;5082163;28;20032;-65
2021/01/05 06:49:17;;;;;;;43.65;17.42;;;1.40;69.00;;;;;;5083452;28;20051;-64
2021/01/05 06:51:43;;;;;;;40.38;17.63;;;1.40;68.70;;;;;;5081518;28;20040;-65
2021/01/05 06:54:08;;;;;;;38.60;17.95;;;1.40;69.00;;;;;;5080321;28;20020;-65
2021/01/05 06:56:50;;;;;;;39.67;17.90;;;1.40;68.90;;;;;;5083131;28;20097;-64
2021/01/05 06:59:15;;;;;;;40.00;18.40;;;1.40;68.80;;;;;;5081957;28;20036;-64
2021/01/05 07:01:41;;;;;;;42.22;17.85;;;1.60;69.60;;;;;;5081771;28;20101;-64
2021/01/05 07:04:06;;;;;;;42.53;18.58;;;1.70;69.40;;;;;;5083180;28;20093;-65
2021/01/05 07:06:32;;;;;;;39.40;17.73;;;1.70;69.30;;;;;;5081503;28;20024;-65
2021/01/05 07:08:57;;;;;;;39.45;17.65;;;1.80;69.30;;;;;;5082869;28;20048;-65
2021/01/05 07:11:23;;;;;;;39.47;17.50;;;1.80;68.80;;;;;;5081643;28;20035;-65
2021/01/05 07:13:48;;;;;;;43.70;18.58;;;1.70;68.30;;;;;;5082005;28;20032;-65
2021/01/05 07:16:14;;;;;;;41.10;17.70;;;1.70;68.20;;;;;;5083081;28;20100;-65
2021/01/05 07:18:39;;;;;;;44.63;17.55;;;1.60;68.60;;;;;;5081222;28;20037;-65
2021/01/05 07:21:05;;;;;;;42.97;18.33;;;1.70;69.10;;;;;;5081270;28;20354;-65
2021/01/05 07:23:30;;;;;;;37.78;16.63;;;1.50;68.60;;;;;;5082457;28;20092;-66
2021/01/05 07:25:56;;;;;;;46.17;19.40;;;1.60;68.30;;;;;;5081688;28;20036;-66
2021/01/05 07:28:21;;;;;;;40.05;15.90;;;1.70;68.20;;;;;;5082373;28;20059;-65
2021/01/05 07:30:47;;;;;;;40.00;16.98;;;1.70;68.90;;;;;;5079477;28;20197;-65
2021/01/05 07:33:12;;;;;;;43.50;18.75;;;1.80;68.30;;;;;;5080590;28;20040;-65
2021/01/05 07:35:38;;;;;;;43.63;17.73;;;1.60;68.10;;;;;;5082244;28;20036;-64
2021/01/05 07:38:03;;;;;;;41.55;17.52;;;1.70;68.50;;;;;;5082297;28;20032;-64
2021/01/05 07:40:29;;;;;;;40.88;16.80;;;1.80;69.00;;;;;;5082067;28;20330;-64
2021/01/05 07:42:55;;;;;;;37.30;16.75;;;1.70;68.90;;;;;;5080630;28;20044;-64
2021/01/05 07:45:21;;;;;;;41.80;19.00;;;1.90;69.20;;;;;;5080265;28;20040;-65
2021/01/05 07:47:46;;;;;;;38.70;18.20;;;1.80;68.60;;;;;;5064626;28;20040;-65
2021/01/05 07:50:23;;;;;;;44.22;18.63;;;1.90;69.30;;;;;;5082238;28;20033;-65
2021/01/05 07:52:48;;;;;;;42.53;17.92;;;2.00;68.80;;;;;;5080561;28;20159;-67
2021/01/05 07:55:15;;;;;;;44.42;18.55;;;2.00;68.30;;;;;;5080750;28;20032;-66
2021/01/05 07:57:41;;;;;;;41.28;17.95;;;1.90;68.00;;;;;;5080312;28;20224;-63
2021/01/05 08:00:07;;;;;;;38.58;17.17;;;1.90;68.30;;;;;;5079847;28;20028;-66
2021/01/05 08:02:32;;;;;;;41.33;17.58;;;2.00;68.20;;;;;;5081839;28;20044;-67
2021/01/05 08:04:58;;;;;;;36.40;17.33;;;1.80;67.80;;;;;;5082083;28;20278;-65
2021/01/05 08:07:23;;;;;;;39.50;17.45;;;1.70;68.10;;;;;;5081669;28;20036;-67
2021/01/05 08:09:49;;;;;;;44.13;18.67;;;1.60;67.90;;;;;;5079872;28;20040;-67
2021/01/05 08:12:16;;;;;;;41.28;18.08;;;1.60;68.00;;;;;;5080130;28;20034;-64
2021/01/05 08:14:41;;;;;;;39.60;17.92;;;1.60;68.40;;;;;;5080500;28;20044;-64
2021/01/05 08:17:07;;;;;;;41.08;17.38;;;1.70;69.10;;;;;;5080766;28;20108;-64
2021/01/05 08:19:33;;;;;;;40.78;18.20;;;1.70;68.60;;;;;;5081465;28;20060;-64
2021/01/05 08:21:58;;;;;;;44.92;18.73;;;1.70;68.50;;;;;;5079304;28;20043;-65
2021/01/05 08:24:24;;;;;;;41.17;17.77;;;1.80;68.80;;;;;;5078246;28;20037;-65
2021/01/05 08:26:49;;;;;;;39.90;17.60;;;1.80;68.40;;;;;;5081732;28;20025;-63
2021/01/05 08:29:15;;;;;;;44.72;18.58;;;1.90;68.10;;;;;;5081557;28;20032;-63
2021/01/05 08:31:42;;;;;;;39.15;17.83;;;1.90;68.50;;;;;;5079506;28;20115;-65
2021/01/05 08:34:08;;;;;;;41.25;17.42;;;1.90;67.60;;;;;;5079960;28;20036;-64
2021/01/05 08:36:34;;;;;;;42.78;18.90;;;2.00;67.90;;;;;;5079566;28;20028;-63
2021/01/05 08:39:00;;;;;;;37.65;18.35;;;2.00;67.80;;;;;;5080137;28;20028;-64
2021/01/05 08:41:27;;;;;;;44.40;19.17;;;2.00;67.90;;;;;;5062092;28;20033;-64
2021/01/05 08:43:53;;;;;;;42.17;18.38;;;2.00;67.60;;;;;;5063352;28;20063;-63
2021/01/05 08:46:23;;;;;;;40.45;17.63;;;2.10;68.80;;;;;;5081110;28;20047;-64
2021/01/05 08:48:48;;;;;;;41.28;18.20;;;2.00;67.40;;;;;;5078389;28;20036;-64
2021/01/05 08:51:15;;;;;;;40.28;18.80;;;1.80;67.50;;;;;;5079173;28;20272;-64
2021/01/05 08:53:41;;;;;;;42.55;18.42;;;1.90;67.90;;;;;;5079842;28;20189;-64
2021/01/05 08:56:16;;;;;;;36.25;16.92;;;1.90;67.70;;;;;;5081397;28;20255;-64
2021/01/05 08:58:42;;;;;;;38.90;17.63;;;2.10;67.50;;;;;;5079237;28;20107;-65
2021/01/05 09:01:08;;;;;;;41.13;18.00;;;2.00;66.90;;;;;;5080894;28;20042;-63
2021/01/05 09:03:33;;;;;;;37.92;17.75;;;2.00;66.90;;;;;;5077905;28;20319;-65
2021/01/05 09:05:59;;;;;;;37.53;16.23;;;2.10;67.20;;;;;;5079554;28;20099;-64
2021/01/05 09:08:30;;;;;;;34.90;16.05;;;2.20;66.80;;;;;;5079003;28;20032;-65
2021/01/05 09:10:59;;;;;;;35.92;16.42;;;2.20;66.40;;;;;;5079534;28;20029;-65
2021/01/05 09:13:25;;;;;;;39.50;16.88;;;2.30;65.90;;;;;;5080957;28;20040;-65
2021/01/05 09:15:51;;;;;;;38.00;16.25;;;2.20;66.00;;;;;;5078271;28;20109;-64
2021/01/05 09:18:17;;;;;;;40.17;17.70;;;2.20;66.30;;;;;;5079082;28;20032;-64
2021/01/05 09:20:43;;;;;;;38.78;16.77;;;2.10;66.20;;;;;;5079346;28;20089;-65
2021/01/05 09:23:08;;;;;;;40.67;17.98;;;2.20;66.40;;;;;;5080944;28;20032;-66
2021/01/05 09:25:37;;;;;;;40.75;17.52;;;2.20;66.80;;;;;;5080967;28;20032;-65
2021/01/05 09:28:04;;;;;;;41.78;17.88;;;2.20;66.20;;;;;;5079202;28;20060;-65
2021/01/05 09:30:29;;;;;;;40.03;17.95;;;2.20;66.50;;;;;;5079321;28;20033;-65
2021/01/05 09:32:55;;;;;;;35.13;15.85;;;2.20;66.20;;;;;;5080601;28;20190;-65
2021/01/05 09:35:20;;;;;;;39.28;17.73;;;2.20;65.70;;;;;;5084428;28;20245;-66
2021/01/05 09:37:47;;;;;;;37.90;17.05;;;2.20;65.80;;;;;;5083062;28;20040;-66
2021/01/05 09:40:14;;;;;;;37.95;17.60;;;2.30;66.10;;;;;;5066763;28;20036;-68
2021/01/05 09:42:39;;;;;;;36.70;17.08;;;2.10;65.40;;;;;;5081352;28;20040;-66
2021/01/05 09:45:06;;;;;;;38.90;17.98;;;2.10;66.50;;;;;;5081183;28;20045;-67
2021/01/05 09:47:31;;;;;;;43.08;18.40;;;2.20;66.60;;;;;;5082842;28;20036;-65
2021/01/05 09:49:57;;;;;;;42.70;17.80;;;2.20;67.00;;;;;;5084583;28;20118;-68
2021/01/05 09:52:24;;;;;;;40.53;17.98;;;2.20;65.90;;;;;;5083832;28;20044;-68
2021/01/05 09:54:52;;;;;;;40.28;18.48;;;2.20;65.80;;;;;;5047841;28;20024;-69
2021/01/05 09:57:18;;;;;;;40.85;17.50;;;2.20;66.10;;;;;;5047755;28;20246;-64
2021/01/05 09:59:44;;;;;;;38.22;17.92;;;2.20;66.80;;;;;;5084112;28;20040;-65
2021/01/05 10:02:13;;;;;;;36.42;16.65;;;2.20;65.90;;;;;;5065974;28;20029;-65
2021/01/05 10:04:39;;;;;;;37.13;17.25;;;2.20;66.20;;;;;;5083864;28;20347;-64
2021/01/05 10:07:04;;;;;;;38.13;16.98;;;2.20;66.90;;;;;;5081193;28;20029;-65
2021/01/05 10:09:30;;;;;;;41.53;18.83;;;2.20;65.60;;;;;;5082205;28;20028;-65
2021/01/05 10:11:55;;;;;;;39.33;17.25;;;2.00;65.90;;;;;;5066045;28;20257;-64
2021/01/05 10:14:21;;;;;;;40.08;17.40;;;2.20;66.10;;;;;;5083758;28;20059;-65
2021/01/05 10:16:56;;;;;;;40.58;18.08;;;2.20;65.70;;;;;;5082525;28;20039;-64
2021/01/05 10:19:22;;;;;;;42.35;17.58;;;2.30;66.80;;;;;;5083846;28;20325;-64
2021/01/05 10:21:48;;;;;;;40.60;17.45;;;2.40;65.90;;;;;;5082302;28;20324;-65
2021/01/05 10:24:14;;;;;;;38.47;17.10;;;2.20;65.50;;;;;;5082038;28;20033;-65
2021/01/05 10:26:39;;;;;;;39.25;17.20;;;2.30;65.70;;;;;;5082570;28;20029;-65
2021/01/05 10:29:05;;;;;;;40.08;17.45;;;2.30;65.50;;;;;;5083684;28;20346;-65
2021/01/05 10:31:38;;;;;;;38.65;17.20;;;2.30;64.70;;;;;;5082454;28;20052;-63
2021/01/05 10:34:04;;;;;;;41.00;17.92;;;2.20;64.50;;;;;;5081926;28;20032;-65
2021/01/05 10:36:29;;;;;;;36.65;17.27;;;2.30;65.30;;;;;;5081893;28;20043;-65
2021/01/05 10:38:55;;;;;;;39.83;17.80;;;2.10;65.00;;;;;;5083372;28;20028;-65
2021/01/05 10:41:20;;;;;;;33.95;16.95;;;2.10;64.80;;;;;;5081892;28;20217;-65
2021/01/05 10:43:46;;;;;;;43.80;17.95;;;2.20;65.00;;;;;;5080258;28;20108;-66
2021/01/05 10:46:17;;;;;;;36.47;16.83;;;2.30;65.20;;;;;;5080894;28;20045;-68
2021/01/05 10:48:44;;;;;;;36.00;16.50;;;2.30;65.50;;;;;;5047535;28;20041;-65
2021/01/05 10:51:09;;;;;;;36.30;17.40;;;2.40;65.60;;;;;;5063492;28;20032;-67
2021/01/05 10:53:35;;;;;;;38.08;16.45;;;2.40;65.10;;;;;;5082922;28;20036;-67
2021/01/05 10:56:00;;;;;;;37.90;16.90;;;2.50;66.40;;;;;;5083241;28;20049;-66
2021/01/05 10:58:26;;;;;;;40.40;17.08;;;2.70;65.90;;;;;;5081909;28;20060;-67
2021/01/05 11:00:52;;;;;;;33.35;15.70;;;2.60;65.00;;;;;;5080192;28;20312;-66
2021/01/05 11:03:17;;;;;;;41.40;16.67;;;2.60;64.90;;;;;;5080291;28;20032;-65
2021/01/05 11:05:43;;;;;;;38.08;16.40;;;2.60;64.30;;;;;;5082686;28;20076;-66
2021/01/05 11:08:08;;;;;;;39.17;16.77;;;2.50;64.60;;;;;;5082016;28;20252;-67
2021/01/05 11:10:34;;;;;;;38.28;16.95;;;2.40;63.80;;;;;;5081677;28;20037;-66
2021/01/05 11:12:59;;;;;;;37.35;16.13;;;2.50;64.50;;;;;;5063416;28;20374;-66
2021/01/05 11:15:25;;;;;;;35.28;15.60;;;2.60;64.70;;;;;;5079694;28;20044;-66
2021/01/05 11:17:51;;;;;;;39.28;16.13;;;2.70;64.20;;;;;;5081623;28;20327;-65
2021/01/05 11:20:17;;;;;;;37.22;15.43;;;2.80;64.60;;;;;;5048380;28;20037;-65
2021/01/05 11:22:42;;;;;;;35.80;15.38;;;2.60;62.80;;;;;;5080720;28;20096;-66
2021/01/05 11:25:09;;;;;;;34.22;15.10;;;2.60;64.30;;;;;;5064635;28;20033;-66
2021/01/05 11:27:35;;;;;;;36.55;15.15;;;2.70;63.30;;;;;;5079657;28;20066;-66
2021/01/05 11:30:00;;;;;;;34.05;15.60;;;2.40;63.70;;;;;;5064504;28;20255;-66
2021/01/05 11:32:26;;;;;;;36.67;14.63;;;2.30;63.60;;;;;;5079397;28;20066;-66
2021/01/05 11:34:51;;;;;;;35.13;15.90;;;2.30;63.90;;;;;;5081887;28;20056;-66
2021/01/05 11:37:19;;;;;;;37.13;16.27;;;2.40;63.90;;;;;;5081951;28;20043;-66
2021/01/05 11:39:46;;;;;;;39.60;15.68;;;2.40;64.40;;;;;;5079380;28;20082;-66
2021/01/05 11:42:12;;;;;;;36.05;16.00;;;2.40;63.80;;;;;;5062993;28;20047;-62
2021/01/05 11:44:38;;;;;;;36.05;15.60;;;2.40;63.70;;;;;;5080697;28;20048;-66
2021/01/05 11:47:04;;;;;;;39.08;15.75;;;2.40;64.40;;;;;;5082260;28;20032;-66
2021/01/05 11:49:29;;;;;;;37.38;15.55;;;2.30;63.90;;;;;;5082048;28;20086;-66
2021/01/05 11:51:55;;;;;;;31.10;14.82;;;2.40;65.10;;;;;;5079389;28;20060;-66
2021/01/05 11:54:21;;;;;;;39.67;16.80;;;2.60;65.10;;;;;;5062642;28;20220;-65
2021/01/05 11:56:47;;;;;;;33.33;15.85;;;2.80;64.60;;;;;;5080198;28;20037;-65
2021/01/05 11:59:13;;;;;;;37.03;16.48;;;2.80;64.00;;;;;;5064364;28;20373;-65
2021/01/05 12:01:39;;;;;;;35.75;16.15;;;2.90;64.30;;;;;;5081617;28;20032;-65
2021/01/05 12:04:07;;;;;;;39.50;16.73;;;2.90;64.30;;;;;;5079525;28;20024;-66
2021/01/05 12:06:32;;;;;;;37.25;17.63;;;2.90;63.80;;;;;;5062214;28;20044;-66
2021/01/05 12:08:58;;;;;;;36.97;16.52;;;2.90;63.20;;;;;;5080454;28;20079;-66
2021/01/05 12:11:25;;;;;;;35.10;16.25;;;2.70;63.10;;;;;;5079127;28;20033;-67
2021/01/05 12:13:51;;;;;;;37.60;16.98;;;2.80;62.80;;;;;;5064223;28;20040;-66
2021/01/05 12:16:27;;;;;;;35.38;15.10;;;2.90;63.70;;;;;;5063961;28;20052;-66
2021/01/05 12:18:53;;;;;;;35.35;15.70;;;2.90;64.00;;;;;;5079974;28;20036;-65
2021/01/05 12:21:30;;;;;;;37.15;17.20;;;3.00;64.10;;;;;;5062382;28;20039;-65
2021/01/05 12:23:55;;;;;;;34.17;15.70;;;2.80;62.60;;;;;;5030675;28;20224;-65
2021/01/05 12:26:24;;;;;;;35.53;15.82;;;2.80;63.90;;;;;;5063835;28;20032;-65
2021/01/05 12:28:50;;;;;;;35.67;16.08;;;2.90;64.40;;;;;;5078779;28;20037;-65
2021/01/05 12:31:16;;;;;;;33.28;15.88;;;2.90;64.70;;;;;;5080000;28;20037;-65
2021/01/05 12:33:41;;;;;;;34.10;15.82;;;3.00;64.40;;;;;;5078387;28;20070;-65
2021/01/05 12:36:07;;;;;;;37.78;16.45;;;2.90;64.00;;;;;;5078281;28;20123;-66
2021/01/05 12:38:34;;;;;;;34.35;15.05;;;3.00;63.20;;;;;;5080843;28;20224;-66
2021/01/05 12:41:01;;;;;;;34.03;15.90;;;3.10;63.80;;;;;;5081389;28;20228;-65
2021/01/05 12:43:26;;;;;;;36.13;16.70;;;2.90;63.70;;;;;;5081063;28;20251;-66
2021/01/05 12:45:52;;;;;;;35.10;15.68;;;2.90;63.10;;;;;;5077439;28;20052;-64